createdAt,value
2017-04-20T00:00:16.184Z,-0.6
2017-04-20T00:00:34.982Z,-0.6
2017-04-20T00:00:53.826Z,-0.6
2017-04-20T00:01:12.645Z,-0.6
2017-04-20T00:01:31.504Z,-0.6
2017-04-20T00:01:50.284Z,-0.6
2017-04-20T00:02:09.027Z,-0.6
2017-04-20T00:02:27.697Z,-0.6
2017-04-20T00:02:46.356Z,-0.5
2017-04-20T00:03:05.031Z,-0.5
2017-04-20T00:03:23.707Z,-0.5
2017-04-20T00:03:42.359Z,-0.5
2017-04-20T00:04:01.016Z,-0.5
2017-04-20T00:04:19.668Z,-0.5
2017-04-20T00:04:38.320Z,-0.5
2017-04-20T00:04:56.966Z,-0.5
2017-04-20T00:05:15.616Z,-0.5
2017-04-20T00:05:34.266Z,-0.5
2017-04-20T00:05:52.921Z,-0.5
2017-04-20T00:06:11.581Z,-0.5
2017-04-20T00:06:30.259Z,-0.5
2017-04-20T00:06:48.912Z,-0.5
2017-04-20T00:07:07.568Z,-0.5
2017-04-20T00:07:26.221Z,-0.5
2017-04-20T00:07:44.874Z,-0.5
2017-04-20T00:08:03.559Z,-0.5
2017-04-20T00:08:22.213Z,-0.5
2017-04-20T00:08:40.871Z,-0.5
2017-04-20T00:08:59.520Z,-0.5
2017-04-20T00:09:18.174Z,-0.5
2017-04-20T00:09:36.825Z,-0.5
2017-04-20T00:09:55.477Z,-0.5
2017-04-20T00:10:14.137Z,-0.5
2017-04-20T00:10:32.794Z,-0.5
2017-04-20T00:10:51.450Z,-0.5
2017-04-20T00:11:10.127Z,-0.5
2017-04-20T00:11:28.778Z,-0.5
2017-04-20T00:11:47.434Z,-0.5
2017-04-20T00:12:06.086Z,-0.5
2017-04-20T00:12:24.744Z,-0.5
2017-04-20T00:12:43.392Z,-0.5
2017-04-20T00:13:02.042Z,-0.5
2017-04-20T00:13:20.697Z,-0.5
2017-04-20T00:13:39.352Z,-0.5
2017-04-20T00:13:58.033Z,-0.5
2017-04-20T00:14:16.690Z,-0.5
2017-04-20T00:14:35.362Z,-0.5
2017-04-20T00:14:54.115Z,-0.5
2017-04-20T00:15:12.770Z,-0.5
2017-04-20T00:15:31.427Z,-0.5
2017-04-20T00:15:50.113Z,-0.5
2017-04-20T00:16:08.765Z,-0.5
2017-04-20T00:16:27.415Z,-0.5
2017-04-20T00:16:46.067Z,-0.5
2017-04-20T00:17:04.719Z,-0.5
2017-04-20T00:17:23.376Z,-0.5
2017-04-20T00:17:42.032Z,-0.5
2017-04-20T00:18:00.684Z,-0.5
2017-04-20T00:18:19.338Z,-0.5
2017-04-20T00:18:38.000Z,-0.5
2017-04-20T00:18:56.649Z,-0.5
2017-04-20T00:19:15.313Z,-0.5
2017-04-20T00:19:33.970Z,-0.5
2017-04-20T00:19:52.621Z,-0.5
2017-04-20T00:20:11.278Z,-0.5
2017-04-20T00:20:29.954Z,-0.5
2017-04-20T00:20:48.611Z,-0.5
2017-04-20T00:21:07.267Z,-0.5
2017-04-20T00:21:25.919Z,-0.5
2017-04-20T00:21:44.572Z,-0.5
2017-04-20T00:22:03.222Z,-0.5
2017-04-20T00:22:21.874Z,-0.5
2017-04-20T00:22:40.521Z,-0.5
2017-04-20T00:22:59.168Z,-0.5
2017-04-20T00:23:17.827Z,-0.5
2017-04-20T00:23:36.477Z,-0.5
2017-04-20T00:23:55.155Z,-0.5
2017-04-20T00:24:13.808Z,-0.5
2017-04-20T00:24:32.490Z,-0.5
2017-04-20T00:24:51.144Z,-0.5
2017-04-20T00:25:09.803Z,-0.5
2017-04-20T00:25:28.489Z,-0.5
2017-04-20T00:25:47.143Z,-0.5
2017-04-20T00:26:06.074Z,-0.5
2017-04-20T00:26:24.730Z,-0.5
2017-04-20T00:26:43.422Z,-0.5
2017-04-20T00:27:02.083Z,-0.5
2017-04-20T00:27:20.739Z,-0.5
2017-04-20T00:27:39.392Z,-0.5
2017-04-20T00:27:58.045Z,-0.5
2017-04-20T00:28:16.701Z,-0.5
2017-04-20T00:28:35.351Z,-0.5
2017-04-20T00:28:54.005Z,-0.5
2017-04-20T00:29:12.660Z,-0.5
2017-04-20T00:29:31.319Z,-0.5
2017-04-20T00:29:50.031Z,-0.5
2017-04-20T00:30:08.686Z,-0.5
2017-04-20T00:30:27.345Z,-0.5
2017-04-20T00:30:45.995Z,-0.5
2017-04-20T00:31:04.653Z,-0.5
2017-04-20T00:31:23.305Z,-0.5
2017-04-20T00:31:41.957Z,-0.5
2017-04-20T00:32:00.611Z,-0.5
2017-04-20T00:32:19.257Z,-0.5
2017-04-20T00:32:37.906Z,-0.5
2017-04-20T00:32:56.561Z,-0.5
2017-04-20T00:33:15.216Z,-0.6
2017-04-20T00:33:33.863Z,-0.6
2017-04-20T00:33:52.530Z,-0.6
2017-04-20T00:34:11.184Z,-0.6
2017-04-20T00:34:29.850Z,-0.6
2017-04-20T00:34:48.502Z,-0.6
2017-04-20T00:35:07.197Z,-0.6
2017-04-20T00:35:25.855Z,-0.7
2017-04-20T00:35:44.506Z,-0.7
2017-04-20T00:36:03.159Z,-0.7
2017-04-20T00:36:21.813Z,-0.6
2017-04-20T00:36:40.464Z,-0.6
2017-04-20T00:36:59.114Z,-0.6
2017-04-20T00:37:17.763Z,-0.6
2017-04-20T00:37:36.441Z,-0.7
2017-04-20T00:37:55.121Z,-0.7
2017-04-20T00:38:13.775Z,-0.7
2017-04-20T00:38:32.426Z,-0.7
2017-04-20T00:38:51.085Z,-0.7
2017-04-20T00:39:09.736Z,-0.6
2017-04-20T00:39:28.420Z,-0.6
2017-04-20T00:39:47.074Z,-0.6
2017-04-20T00:40:05.734Z,-0.6
2017-04-20T00:40:24.393Z,-0.6
2017-04-20T00:40:43.047Z,-0.6
2017-04-20T00:41:01.693Z,-0.6
2017-04-20T00:41:20.343Z,-0.6
2017-04-20T00:41:38.994Z,-0.6
2017-04-20T00:41:57.646Z,-0.6
2017-04-20T00:42:16.298Z,-0.6
2017-04-20T00:42:34.989Z,-0.6
2017-04-20T00:42:53.650Z,-0.6
2017-04-20T00:43:12.301Z,-0.6
2017-04-20T00:43:30.950Z,-0.6
2017-04-20T00:43:49.596Z,-0.6
2017-04-20T00:44:08.248Z,-0.6
2017-04-20T00:44:26.897Z,-0.6
2017-04-20T00:44:45.552Z,-0.6
2017-04-20T00:45:04.222Z,-0.6
2017-04-20T00:45:22.878Z,-0.6
2017-04-20T00:45:41.560Z,-0.6
2017-04-20T00:46:00.218Z,-0.6
2017-04-20T00:46:18.863Z,-0.6
2017-04-20T00:46:37.515Z,-0.6
2017-04-20T00:46:56.181Z,-0.6
2017-04-20T00:47:14.867Z,-0.6
2017-04-20T00:47:33.524Z,-0.6
2017-04-20T00:47:52.181Z,-0.6
2017-04-20T00:48:10.833Z,-0.6
2017-04-20T00:48:29.485Z,-0.6
2017-04-20T00:48:48.137Z,-0.6
2017-04-20T00:49:06.793Z,-0.6
2017-04-20T00:49:25.444Z,-0.6
2017-04-20T00:49:44.097Z,-0.6
2017-04-20T00:50:02.755Z,-0.6
2017-04-20T00:50:21.412Z,-0.6
2017-04-20T00:50:40.091Z,-0.6
2017-04-20T00:50:58.752Z,-0.7
2017-04-20T00:51:17.401Z,-0.6
2017-04-20T00:51:36.054Z,-0.6
2017-04-20T00:51:54.716Z,-0.6
2017-04-20T00:52:13.395Z,-0.6
2017-04-20T00:52:32.042Z,-0.6
2017-04-20T00:52:50.693Z,-0.6
2017-04-20T00:53:09.343Z,-0.6
2017-04-20T00:53:28.001Z,-0.6
2017-04-20T00:53:46.652Z,-0.6
2017-04-20T00:54:05.306Z,-0.6
2017-04-20T00:54:23.958Z,-0.6
2017-04-20T00:54:42.611Z,-0.6
2017-04-20T00:55:01.270Z,-0.6
2017-04-20T00:55:20.112Z,-0.6
2017-04-20T00:55:38.764Z,-0.6
2017-04-20T00:55:57.413Z,-0.6
2017-04-20T00:56:16.090Z,-0.6
2017-04-20T00:56:34.758Z,-0.6
2017-04-20T00:56:53.411Z,-0.6
2017-04-20T00:57:12.059Z,-0.6
2017-04-20T00:57:30.714Z,-0.6
2017-04-20T00:57:49.364Z,-0.6
2017-04-20T00:58:08.014Z,-0.6
2017-04-20T00:58:26.667Z,-0.6
2017-04-20T00:58:45.318Z,-0.6
2017-04-20T00:59:03.968Z,-0.6
2017-04-20T00:59:22.624Z,-0.6
2017-04-20T00:59:41.275Z,-0.6
2017-04-20T00:59:59.950Z,-0.7
2017-04-20T01:00:18.631Z,-0.6
2017-04-20T01:00:37.285Z,-0.6
2017-04-20T01:00:55.945Z,-0.7
2017-04-20T01:01:14.599Z,-0.7
2017-04-20T01:01:33.292Z,-0.7
2017-04-20T01:01:51.941Z,-0.7
2017-04-20T01:02:10.595Z,-0.7
2017-04-20T01:02:29.249Z,-0.7
2017-04-20T01:02:47.902Z,-0.7
2017-04-20T01:03:06.553Z,-0.7
2017-04-20T01:03:25.209Z,-0.7
2017-04-20T01:03:43.868Z,-0.7
2017-04-20T01:04:02.525Z,-0.7
2017-04-20T01:04:21.177Z,-0.7
2017-04-20T01:04:39.855Z,-0.7
2017-04-20T01:04:58.507Z,-0.7
2017-04-20T01:05:17.158Z,-0.6
2017-04-20T01:05:35.810Z,-0.6
2017-04-20T01:05:54.459Z,-0.6
2017-04-20T01:06:13.110Z,-0.6
2017-04-20T01:06:31.796Z,-0.6
2017-04-20T01:06:50.471Z,-0.6
2017-04-20T01:07:09.124Z,-0.6
2017-04-20T01:07:27.777Z,-0.6
2017-04-20T01:07:46.436Z,-0.6
2017-04-20T01:08:05.087Z,-0.6
2017-04-20T01:08:23.745Z,-0.6
2017-04-20T01:08:42.399Z,-0.6
2017-04-20T01:09:01.052Z,-0.6
2017-04-20T01:09:19.720Z,-0.6
2017-04-20T01:09:38.380Z,-0.6
2017-04-20T01:09:57.026Z,-0.6
2017-04-20T01:10:15.678Z,-0.6
2017-04-20T01:10:34.328Z,-0.6
2017-04-20T01:10:52.981Z,-0.6
2017-04-20T01:11:11.630Z,-0.6
2017-04-20T01:11:30.287Z,-0.5
2017-04-20T01:11:48.939Z,-0.6
2017-04-20T01:12:07.596Z,-0.6
2017-04-20T01:12:26.252Z,-0.5
2017-04-20T01:12:44.934Z,-0.6
2017-04-20T01:13:03.586Z,-0.6
2017-04-20T01:13:22.239Z,-0.6
2017-04-20T01:13:40.894Z,-0.6
2017-04-20T01:13:59.544Z,-0.6
2017-04-20T01:14:18.232Z,-0.6
2017-04-20T01:14:36.885Z,-0.6
2017-04-20T01:14:55.535Z,-0.6
2017-04-20T01:15:14.190Z,-0.6
2017-04-20T01:15:32.872Z,-0.6
2017-04-20T01:15:51.527Z,-0.6
2017-04-20T01:16:10.176Z,-0.6
2017-04-20T01:16:28.829Z,-0.6
2017-04-20T01:16:47.489Z,-0.6
2017-04-20T01:17:06.143Z,-0.6
2017-04-20T01:17:24.837Z,-0.6
2017-04-20T01:17:43.492Z,-0.6
2017-04-20T01:18:02.146Z,-0.6
2017-04-20T01:18:20.801Z,-0.6
2017-04-20T01:18:39.455Z,-0.6
2017-04-20T01:18:58.113Z,-0.6
2017-04-20T01:19:16.764Z,-0.6
2017-04-20T01:19:35.421Z,-0.6
2017-04-20T01:19:54.071Z,-0.6
2017-04-20T01:20:12.731Z,-0.6
2017-04-20T01:20:31.387Z,-0.6
2017-04-20T01:20:50.046Z,-0.6
2017-04-20T01:21:08.700Z,-0.6
2017-04-20T01:21:27.353Z,-0.6
2017-04-20T01:21:46.006Z,-0.6
2017-04-20T01:22:04.680Z,-0.6
2017-04-20T01:22:23.332Z,-0.6
2017-04-20T01:22:41.992Z,-0.6
2017-04-20T01:23:00.650Z,-0.6
2017-04-20T01:23:19.300Z,-0.6
2017-04-20T01:23:37.954Z,-0.6
2017-04-20T01:23:56.606Z,-0.6
2017-04-20T01:24:15.267Z,-0.6
2017-04-20T01:24:33.921Z,-0.6
2017-04-20T01:24:52.578Z,-0.7
2017-04-20T01:25:11.232Z,-0.7
2017-04-20T01:25:29.915Z,-0.7
2017-04-20T01:25:48.574Z,-0.7
2017-04-20T01:26:07.223Z,-0.7
2017-04-20T01:26:25.870Z,-0.7
2017-04-20T01:26:44.531Z,-0.8
2017-04-20T01:27:03.211Z,-0.8
2017-04-20T01:27:21.863Z,-0.8
2017-04-20T01:27:40.522Z,-0.9
2017-04-20T01:27:59.186Z,-0.9
2017-04-20T01:28:17.836Z,-1
2017-04-20T01:28:36.489Z,-1
2017-04-20T01:28:55.137Z,-1
2017-04-20T01:29:13.786Z,-1
2017-04-20T01:29:32.445Z,-1.1
2017-04-20T01:29:51.097Z,-1.1
2017-04-20T01:30:09.775Z,-1.1
2017-04-20T01:30:28.426Z,-1.2
2017-04-20T01:30:47.103Z,-1.2
2017-04-20T01:31:05.759Z,-1.3
2017-04-20T01:31:24.412Z,-1.3
2017-04-20T01:31:43.060Z,-1.4
2017-04-20T01:32:01.708Z,-1.4
2017-04-20T01:32:20.359Z,-1.4
2017-04-20T01:32:39.011Z,-1.5
2017-04-20T01:32:57.664Z,-1.5
2017-04-20T01:33:16.347Z,-1.5
2017-04-20T01:33:35.269Z,-1.6
2017-04-20T01:33:53.924Z,-1.6
2017-04-20T01:34:12.580Z,-1.6
2017-04-20T01:34:31.230Z,-1.7
2017-04-20T01:34:49.908Z,-1.7
2017-04-20T01:35:08.556Z,-1.7
2017-04-20T01:35:27.213Z,-1.7
2017-04-20T01:35:45.866Z,-1.8
2017-04-20T01:36:04.524Z,-1.8
2017-04-20T01:36:23.206Z,-1.8
2017-04-20T01:36:41.859Z,-1.8
2017-04-20T01:37:00.513Z,-1.8
2017-04-20T01:37:19.163Z,-1.9
2017-04-20T01:37:37.815Z,-1.9
2017-04-20T01:37:56.465Z,-1.9
2017-04-20T01:38:15.124Z,-1.9
2017-04-20T01:38:33.779Z,-1.9
2017-04-20T01:38:52.429Z,-1.9
2017-04-20T01:39:11.084Z,-1.9
2017-04-20T01:39:29.762Z,-1.9
2017-04-20T01:39:48.411Z,-1.9
2017-04-20T01:40:07.063Z,-2
2017-04-20T01:40:25.719Z,-1.9
2017-04-20T01:40:44.370Z,-1.9
2017-04-20T01:41:03.022Z,-1.9
2017-04-20T01:41:21.678Z,-1.9
2017-04-20T01:41:40.328Z,-1.9
2017-04-20T01:41:58.981Z,-1.9
2017-04-20T01:42:17.636Z,-1.8
2017-04-20T01:42:36.293Z,-1.9
2017-04-20T01:42:54.954Z,-1.8
2017-04-20T01:43:13.604Z,-1.8
2017-04-20T01:43:32.256Z,-1.8
2017-04-20T01:43:50.925Z,-1.8
2017-04-20T01:44:09.603Z,-1.8
2017-04-20T01:44:28.254Z,-1.8
2017-04-20T01:44:47.003Z,-1.8
2017-04-20T01:45:05.659Z,-1.8
2017-04-20T01:45:24.313Z,-1.8
2017-04-20T01:45:42.969Z,-1.7
2017-04-20T01:46:01.645Z,-1.7
2017-04-20T01:46:20.298Z,-1.7
2017-04-20T01:46:38.954Z,-1.7
2017-04-20T01:46:57.620Z,-1.7
2017-04-20T01:47:16.271Z,-1.7
2017-04-20T01:47:34.930Z,-1.7
2017-04-20T01:47:53.584Z,-1.7
2017-04-20T01:48:12.237Z,-1.7
2017-04-20T01:48:30.890Z,-1.6
2017-04-20T01:48:49.565Z,-1.6
2017-04-20T01:49:08.229Z,-1.6
2017-04-20T01:49:26.883Z,-1.6
2017-04-20T01:49:45.539Z,-1.6
2017-04-20T01:50:04.204Z,-1.6
2017-04-20T01:50:22.859Z,-1.6
2017-04-20T01:50:41.512Z,-1.6
2017-04-20T01:51:00.170Z,-1.6
2017-04-20T01:51:18.825Z,-1.5
2017-04-20T01:51:37.627Z,-1.5
2017-04-20T01:51:56.285Z,-1.5
2017-04-20T01:52:14.945Z,-1.5
2017-04-20T01:52:33.604Z,-1.5
2017-04-20T01:52:52.257Z,-1.5
2017-04-20T01:53:10.908Z,-1.5
2017-04-20T01:53:29.580Z,-1.6
2017-04-20T01:53:48.228Z,-1.6
2017-04-20T01:54:06.882Z,-1.6
2017-04-20T01:54:25.556Z,-1.6
2017-04-20T01:54:44.218Z,-1.6
2017-04-20T01:55:02.874Z,-1.6
2017-04-20T01:55:21.532Z,-1.6
2017-04-20T01:55:40.183Z,-1.6
2017-04-20T01:55:58.840Z,-1.6
2017-04-20T01:56:17.492Z,-1.6
2017-04-20T01:56:36.143Z,-1.7
2017-04-20T01:56:54.822Z,-1.7
2017-04-20T01:57:13.480Z,-1.7
2017-04-20T01:57:32.130Z,-1.7
2017-04-20T01:57:50.790Z,-1.7
2017-04-20T01:58:09.452Z,-1.8
2017-04-20T01:58:28.128Z,-1.8
2017-04-20T01:58:46.780Z,-1.8
2017-04-20T01:59:05.444Z,-1.9
2017-04-20T01:59:24.094Z,-1.9
2017-04-20T01:59:42.771Z,-1.9
2017-04-20T02:00:01.425Z,-2
2017-04-20T02:00:20.082Z,-2
2017-04-20T02:00:38.738Z,-2
2017-04-20T02:00:57.399Z,-2
2017-04-20T02:01:16.060Z,-2
2017-04-20T02:01:34.743Z,-2.1
2017-04-20T02:01:53.391Z,-2.1
2017-04-20T02:02:12.049Z,-2.1
2017-04-20T02:02:30.703Z,-2.1
2017-04-20T02:02:49.362Z,-2.2
2017-04-20T02:03:08.044Z,-2.2
2017-04-20T02:03:26.699Z,-2.2
2017-04-20T02:03:45.349Z,-2.2
2017-04-20T02:04:04.003Z,-2.2
2017-04-20T02:04:22.657Z,-2.2
2017-04-20T02:04:41.309Z,-2.2
2017-04-20T02:04:59.986Z,-2.2
2017-04-20T02:05:18.637Z,-2.3
2017-04-20T02:05:37.288Z,-2.3
2017-04-20T02:05:55.936Z,-2.3
2017-04-20T02:06:14.614Z,-2.3
2017-04-20T02:06:33.264Z,-2.3
2017-04-20T02:06:51.923Z,-2.3
2017-04-20T02:07:10.575Z,-2.3
2017-04-20T02:07:29.227Z,-2.3
2017-04-20T02:07:47.886Z,-2.3
2017-04-20T02:08:06.544Z,-2.3
2017-04-20T02:08:25.204Z,-2.3
2017-04-20T02:08:43.855Z,-2.3
2017-04-20T02:09:02.510Z,-2.3
2017-04-20T02:09:21.164Z,-2.3
2017-04-20T02:09:39.896Z,-2.2
2017-04-20T02:09:58.551Z,-2.2
2017-04-20T02:10:17.231Z,-2.2
2017-04-20T02:10:35.883Z,-2.2
2017-04-20T02:10:54.564Z,-2.2
2017-04-20T02:11:13.216Z,-2.1
2017-04-20T02:11:31.872Z,-2.1
2017-04-20T02:11:50.523Z,-2.1
2017-04-20T02:12:09.176Z,-2.1
2017-04-20T02:12:27.841Z,-2.1
2017-04-20T02:12:46.506Z,-2
2017-04-20T02:13:05.159Z,-2
2017-04-20T02:13:23.814Z,-2
2017-04-20T02:13:42.465Z,-2
2017-04-20T02:14:01.116Z,-2
2017-04-20T02:14:19.779Z,-2
2017-04-20T02:14:38.436Z,-2
2017-04-20T02:14:57.088Z,-1.9
2017-04-20T02:15:15.742Z,-1.9
2017-04-20T02:15:34.413Z,-1.9
2017-04-20T02:15:53.061Z,-1.9
2017-04-20T02:16:11.712Z,-1.8
2017-04-20T02:16:30.401Z,-1.8
2017-04-20T02:16:49.052Z,-1.8
2017-04-20T02:17:07.703Z,-1.8
2017-04-20T02:17:26.358Z,-1.8
2017-04-20T02:17:45.016Z,-1.7
2017-04-20T02:18:03.668Z,-1.7
2017-04-20T02:18:22.321Z,-1.7
2017-04-20T02:18:40.980Z,-1.7
2017-04-20T02:18:59.662Z,-1.7
2017-04-20T02:19:18.314Z,-1.7
2017-04-20T02:19:36.968Z,-1.7
2017-04-20T02:19:55.618Z,-1.7
2017-04-20T02:20:14.269Z,-1.7
2017-04-20T02:20:32.953Z,-1.7
2017-04-20T02:20:51.629Z,-1.7
2017-04-20T02:21:10.282Z,-1.7
2017-04-20T02:21:28.932Z,-1.7
2017-04-20T02:21:47.582Z,-1.7
2017-04-20T02:22:06.233Z,-1.7
2017-04-20T02:22:24.890Z,-1.7
2017-04-20T02:22:43.541Z,-1.7
2017-04-20T02:23:02.192Z,-1.7
2017-04-20T02:23:20.844Z,-1.7
2017-04-20T02:23:39.528Z,-1.7
2017-04-20T02:23:58.183Z,-1.7
2017-04-20T02:24:16.835Z,-1.7
2017-04-20T02:24:35.490Z,-1.7
2017-04-20T02:24:54.140Z,-1.7
2017-04-20T02:25:12.802Z,-1.7
2017-04-20T02:25:31.458Z,-1.7
2017-04-20T02:25:50.110Z,-1.8
2017-04-20T02:26:08.773Z,-1.8
2017-04-20T02:26:27.429Z,-1.8
2017-04-20T02:26:46.079Z,-1.8
2017-04-20T02:27:04.740Z,-1.8
2017-04-20T02:27:23.388Z,-1.8
2017-04-20T02:27:42.189Z,-1.9
2017-04-20T02:28:00.842Z,-1.9
2017-04-20T02:28:19.524Z,-1.9
2017-04-20T02:28:38.180Z,-1.9
2017-04-20T02:28:56.834Z,-2
2017-04-20T02:29:15.491Z,-2
2017-04-20T02:29:34.142Z,-2
2017-04-20T02:29:52.802Z,-2
2017-04-20T02:30:11.456Z,-2
2017-04-20T02:30:30.131Z,-2
2017-04-20T02:30:48.790Z,-2
2017-04-20T02:31:07.604Z,-2.1
2017-04-20T02:31:26.280Z,-2.1
2017-04-20T02:31:44.955Z,-2.1
2017-04-20T02:32:03.606Z,-2.1
2017-04-20T02:32:22.262Z,-2.2
2017-04-20T02:32:40.914Z,-2.2
2017-04-20T02:32:59.597Z,-2.2
2017-04-20T02:33:18.253Z,-2.2
2017-04-20T02:33:36.918Z,-2.2
2017-04-20T02:33:55.574Z,-2.2
2017-04-20T02:34:14.236Z,-2.2
2017-04-20T02:34:32.920Z,-2.2
2017-04-20T02:34:51.572Z,-2.2
2017-04-20T02:35:10.221Z,-2.2
2017-04-20T02:35:28.877Z,-2.2
2017-04-20T02:35:47.534Z,-2.2
2017-04-20T02:36:06.191Z,-2.2
2017-04-20T02:36:24.846Z,-2.3
2017-04-20T02:36:43.513Z,-2.3
2017-04-20T02:37:02.165Z,-2.3
2017-04-20T02:37:20.828Z,-2.3
2017-04-20T02:37:39.506Z,-2.3
2017-04-20T02:37:58.164Z,-2.3
2017-04-20T02:38:16.819Z,-2.3
2017-04-20T02:38:35.468Z,-2.3
2017-04-20T02:38:54.112Z,-2.3
2017-04-20T02:39:12.768Z,-2.3
2017-04-20T02:39:31.425Z,-2.3
2017-04-20T02:39:50.076Z,-2.4
2017-04-20T02:40:08.729Z,-2.3
2017-04-20T02:40:27.378Z,-2.4
2017-04-20T02:40:46.028Z,-2.4
2017-04-20T02:41:04.682Z,-2.4
2017-04-20T02:41:23.341Z,-2.4
2017-04-20T02:41:41.993Z,-2.4
2017-04-20T02:42:00.676Z,-2.4
2017-04-20T02:42:19.350Z,-2.4
2017-04-20T02:42:38.003Z,-2.4
2017-04-20T02:42:56.655Z,-2.4
2017-04-20T02:43:15.317Z,-2.4
2017-04-20T02:43:33.969Z,-2.4
2017-04-20T02:43:52.625Z,-2.4
2017-04-20T02:44:11.276Z,-2.4
2017-04-20T02:44:29.930Z,-2.4
2017-04-20T02:44:48.585Z,-2.4
2017-04-20T02:45:07.241Z,-2.4
2017-04-20T02:45:25.898Z,-2.4
2017-04-20T02:45:44.577Z,-2.4
2017-04-20T02:46:03.229Z,-2.5
2017-04-20T02:46:21.880Z,-2.5
2017-04-20T02:46:40.528Z,-2.4
2017-04-20T02:46:59.209Z,-2.5
2017-04-20T02:47:17.900Z,-2.5
2017-04-20T02:47:36.558Z,-2.5
2017-04-20T02:47:55.211Z,-2.5
2017-04-20T02:48:13.871Z,-2.5
2017-04-20T02:48:32.527Z,-2.5
2017-04-20T02:48:51.180Z,-2.6
2017-04-20T02:49:09.831Z,-2.6
2017-04-20T02:49:28.487Z,-2.6
2017-04-20T02:49:47.157Z,-2.6
2017-04-20T02:50:05.815Z,-2.6
2017-04-20T02:50:24.503Z,-2.6
2017-04-20T02:50:43.163Z,-2.6
2017-04-20T02:51:01.817Z,-2.6
2017-04-20T02:51:20.476Z,-2.6
2017-04-20T02:51:39.129Z,-2.6
2017-04-20T02:51:57.819Z,-2.6
2017-04-20T02:52:16.472Z,-2.7
2017-04-20T02:52:35.146Z,-2.7
2017-04-20T02:52:53.800Z,-2.7
2017-04-20T02:53:12.457Z,-2.7
2017-04-20T02:53:31.119Z,-2.7
2017-04-20T02:53:49.777Z,-2.7
2017-04-20T02:54:08.432Z,-2.7
2017-04-20T02:54:27.087Z,-2.7
2017-04-20T02:54:45.741Z,-2.7
2017-04-20T02:55:04.430Z,-2.7
2017-04-20T02:55:23.095Z,-2.7
2017-04-20T02:55:41.747Z,-2.7
2017-04-20T02:56:00.395Z,-2.7
2017-04-20T02:56:19.047Z,-2.7
2017-04-20T02:56:37.703Z,-2.7
2017-04-20T02:56:56.364Z,-2.7
2017-04-20T02:57:15.019Z,-2.7
2017-04-20T02:57:33.677Z,-2.7
2017-04-20T02:57:52.332Z,-2.7
2017-04-20T02:58:10.982Z,-2.7
2017-04-20T02:58:29.634Z,-2.7
2017-04-20T02:58:48.284Z,-2.7
2017-04-20T02:59:06.934Z,-2.6
2017-04-20T02:59:25.585Z,-2.6
2017-04-20T02:59:44.252Z,-2.6
2017-04-20T03:00:02.903Z,-2.6
2017-04-20T03:00:21.557Z,-2.6
2017-04-20T03:00:40.211Z,-2.6
2017-04-20T03:00:58.867Z,-2.6
2017-04-20T03:01:17.519Z,-2.6
2017-04-20T03:01:36.177Z,-2.6
2017-04-20T03:01:54.827Z,-2.6
2017-04-20T03:02:13.506Z,-2.6
2017-04-20T03:02:32.157Z,-2.6
2017-04-20T03:02:50.812Z,-2.6
2017-04-20T03:03:09.513Z,-2.5
2017-04-20T03:03:28.164Z,-2.5
2017-04-20T03:03:46.822Z,-2.5
2017-04-20T03:04:05.482Z,-2.5
2017-04-20T03:04:24.147Z,-2.5
2017-04-20T03:04:42.823Z,-2.5
2017-04-20T03:05:01.483Z,-2.5
2017-04-20T03:05:20.139Z,-2.5
2017-04-20T03:05:38.797Z,-2.5
2017-04-20T03:05:57.451Z,-2.5
2017-04-20T03:06:16.104Z,-2.5
2017-04-20T03:06:34.755Z,-2.5
2017-04-20T03:06:53.407Z,-2.5
2017-04-20T03:07:12.063Z,-2.5
2017-04-20T03:07:30.719Z,-2.5
2017-04-20T03:07:49.398Z,-2.5
2017-04-20T03:08:08.049Z,-2.5
2017-04-20T03:08:26.719Z,-2.5
2017-04-20T03:08:45.373Z,-2.5
2017-04-20T03:09:04.035Z,-2.5
2017-04-20T03:09:22.717Z,-2.5
2017-04-20T03:09:41.369Z,-2.5
2017-04-20T03:10:00.019Z,-2.6
2017-04-20T03:10:18.674Z,-2.6
2017-04-20T03:10:37.325Z,-2.6
2017-04-20T03:10:55.983Z,-2.6
2017-04-20T03:11:14.645Z,-2.6
2017-04-20T03:11:33.298Z,-2.6
2017-04-20T03:11:51.952Z,-2.6
2017-04-20T03:12:10.605Z,-2.7
2017-04-20T03:12:29.286Z,-2.7
2017-04-20T03:12:47.940Z,-2.7
2017-04-20T03:13:06.592Z,-2.7
2017-04-20T03:13:25.245Z,-2.7
2017-04-20T03:13:43.924Z,-2.7
2017-04-20T03:14:02.577Z,-2.7
2017-04-20T03:14:21.230Z,-2.7
2017-04-20T03:14:39.890Z,-2.7
2017-04-20T03:14:58.547Z,-2.7
2017-04-20T03:15:17.197Z,-2.7
2017-04-20T03:15:35.846Z,-2.7
2017-04-20T03:15:54.516Z,-2.7
2017-04-20T03:16:13.167Z,-2.7
2017-04-20T03:16:31.823Z,-2.7
2017-04-20T03:16:50.475Z,-2.7
2017-04-20T03:17:09.143Z,-2.6
2017-04-20T03:17:27.803Z,-2.6
2017-04-20T03:17:46.454Z,-2.6
2017-04-20T03:18:05.111Z,-2.6
2017-04-20T03:18:23.757Z,-2.6
2017-04-20T03:18:42.410Z,-2.6
2017-04-20T03:19:01.090Z,-2.6
2017-04-20T03:19:19.747Z,-2.6
2017-04-20T03:19:38.401Z,-2.5
2017-04-20T03:19:57.060Z,-2.5
2017-04-20T03:20:15.742Z,-2.5
2017-04-20T03:20:34.440Z,-2.5
2017-04-20T03:20:53.093Z,-2.5
2017-04-20T03:21:11.753Z,-2.4
2017-04-20T03:21:30.411Z,-2.4
2017-04-20T03:21:49.068Z,-2.4
2017-04-20T03:22:07.761Z,-2.4
2017-04-20T03:22:26.414Z,-2.4
2017-04-20T03:22:45.067Z,-2.4
2017-04-20T03:23:03.726Z,-2.3
2017-04-20T03:23:22.381Z,-2.3
2017-04-20T03:23:41.032Z,-2.3
2017-04-20T03:23:59.687Z,-2.3
2017-04-20T03:24:18.360Z,-2.3
2017-04-20T03:24:37.015Z,-2.3
2017-04-20T03:24:55.668Z,-2.3
2017-04-20T03:25:14.353Z,-2.2
2017-04-20T03:25:33.008Z,-2.3
2017-04-20T03:25:51.659Z,-2.3
2017-04-20T03:26:10.311Z,-2.3
2017-04-20T03:26:28.964Z,-2.3
2017-04-20T03:26:47.644Z,-2.3
2017-04-20T03:27:06.295Z,-2.3
2017-04-20T03:27:24.951Z,-2.3
2017-04-20T03:27:43.603Z,-2.3
2017-04-20T03:28:02.255Z,-2.3
2017-04-20T03:28:20.920Z,-2.3
2017-04-20T03:28:39.570Z,-2.3
2017-04-20T03:28:58.217Z,-2.4
2017-04-20T03:29:16.875Z,-2.4
2017-04-20T03:29:35.530Z,-2.4
2017-04-20T03:29:54.202Z,-2.4
2017-04-20T03:30:12.866Z,-2.4
2017-04-20T03:30:31.519Z,-2.4
2017-04-20T03:30:50.171Z,-2.4
2017-04-20T03:31:08.825Z,-2.5
2017-04-20T03:31:27.480Z,-2.5
2017-04-20T03:31:46.135Z,-2.5
2017-04-20T03:32:04.792Z,-2.5
2017-04-20T03:32:23.446Z,-2.5
2017-04-20T03:32:42.125Z,-2.5
2017-04-20T03:33:00.781Z,-2.5
2017-04-20T03:33:19.451Z,-2.5
2017-04-20T03:33:38.103Z,-2.6
2017-04-20T03:33:56.759Z,-2.6
2017-04-20T03:34:15.414Z,-2.6
2017-04-20T03:34:34.077Z,-2.6
2017-04-20T03:34:52.758Z,-2.6
2017-04-20T03:35:11.412Z,-2.6
2017-04-20T03:35:30.072Z,-2.6
2017-04-20T03:35:48.721Z,-2.7
2017-04-20T03:36:07.376Z,-2.7
2017-04-20T03:36:26.032Z,-2.7
2017-04-20T03:36:44.686Z,-2.7
2017-04-20T03:37:03.336Z,-2.7
2017-04-20T03:37:21.989Z,-2.7
2017-04-20T03:37:40.645Z,-2.8
2017-04-20T03:37:59.332Z,-2.8
2017-04-20T03:38:17.987Z,-2.8
2017-04-20T03:38:36.642Z,-2.8
2017-04-20T03:38:55.292Z,-2.8
2017-04-20T03:39:13.942Z,-2.8
2017-04-20T03:39:32.619Z,-2.8
2017-04-20T03:39:51.274Z,-2.8
2017-04-20T03:40:09.935Z,-2.8
2017-04-20T03:40:28.585Z,-2.9
2017-04-20T03:40:47.239Z,-2.9
2017-04-20T03:41:05.888Z,-2.9
2017-04-20T03:41:24.542Z,-2.9
2017-04-20T03:41:43.196Z,-2.9
2017-04-20T03:42:01.850Z,-2.8
2017-04-20T03:42:20.505Z,-2.8
2017-04-20T03:42:39.181Z,-2.8
2017-04-20T03:42:57.833Z,-2.8
2017-04-20T03:43:16.486Z,-2.8
2017-04-20T03:43:35.132Z,-2.9
2017-04-20T03:43:53.789Z,-2.9
2017-04-20T03:44:12.453Z,-2.9
2017-04-20T03:44:31.108Z,-2.9
2017-04-20T03:44:49.772Z,-2.8
2017-04-20T03:45:08.439Z,-2.9
2017-04-20T03:45:27.121Z,-2.9
2017-04-20T03:45:45.876Z,-2.9
2017-04-20T03:46:04.534Z,-2.9
2017-04-20T03:46:23.184Z,-2.9
2017-04-20T03:46:41.840Z,-2.9
2017-04-20T03:47:00.498Z,-2.9
2017-04-20T03:47:19.183Z,-2.9
2017-04-20T03:47:37.838Z,-3
2017-04-20T03:47:56.516Z,-3
2017-04-20T03:48:15.164Z,-3
2017-04-20T03:48:33.817Z,-3
2017-04-20T03:48:52.468Z,-3
2017-04-20T03:49:11.117Z,-3.1
2017-04-20T03:49:29.772Z,-3.1
2017-04-20T03:49:48.430Z,-3.1
2017-04-20T03:50:07.082Z,-3.1
2017-04-20T03:50:25.737Z,-3.2
2017-04-20T03:50:44.400Z,-3.2
2017-04-20T03:51:03.058Z,-3.2
2017-04-20T03:51:21.709Z,-3.2
2017-04-20T03:51:40.363Z,-3.3
2017-04-20T03:51:59.031Z,-3.3
2017-04-20T03:52:17.685Z,-3.3
2017-04-20T03:52:36.339Z,-3.3
2017-04-20T03:52:54.992Z,-3.3
2017-04-20T03:53:13.644Z,-3.3
2017-04-20T03:53:32.299Z,-3.3
2017-04-20T03:53:50.951Z,-3.3
2017-04-20T03:54:09.605Z,-3.3
2017-04-20T03:54:28.260Z,-3.3
2017-04-20T03:54:46.907Z,-3.3
2017-04-20T03:55:05.568Z,-3.3
2017-04-20T03:55:24.246Z,-3.4
2017-04-20T03:55:42.899Z,-3.4
2017-04-20T03:56:01.576Z,-3.4
2017-04-20T03:56:20.231Z,-3.4
2017-04-20T03:56:38.884Z,-3.4
2017-04-20T03:56:57.567Z,-3.4
2017-04-20T03:57:16.220Z,-3.4
2017-04-20T03:57:34.876Z,-3.4
2017-04-20T03:57:53.533Z,-3.4
2017-04-20T03:58:12.186Z,-3.4
2017-04-20T03:58:30.838Z,-3.4
2017-04-20T03:58:49.490Z,-3.4
2017-04-20T03:59:08.138Z,-3.4
2017-04-20T03:59:26.792Z,-3.5
2017-04-20T03:59:45.450Z,-3.5
2017-04-20T04:00:04.131Z,-3.5
2017-04-20T04:00:22.787Z,-3.5
2017-04-20T04:00:41.447Z,-3.5
2017-04-20T04:01:00.102Z,-3.5
2017-04-20T04:01:18.775Z,-3.5
2017-04-20T04:01:37.429Z,-3.5
2017-04-20T04:01:56.089Z,-3.5
2017-04-20T04:02:14.741Z,-3.5
2017-04-20T04:02:33.392Z,-3.5
2017-04-20T04:02:52.051Z,-3.5
2017-04-20T04:03:10.713Z,-3.5
2017-04-20T04:03:29.365Z,-3.5
2017-04-20T04:03:48.018Z,-3.5
2017-04-20T04:04:06.673Z,-3.6
2017-04-20T04:04:25.333Z,-3.6
2017-04-20T04:04:44.008Z,-3.6
2017-04-20T04:05:02.666Z,-3.6
2017-04-20T04:05:21.320Z,-3.6
2017-04-20T04:05:39.973Z,-3.6
2017-04-20T04:05:58.626Z,-3.6
2017-04-20T04:06:17.284Z,-3.6
2017-04-20T04:06:35.962Z,-3.6
2017-04-20T04:06:54.612Z,-3.6
2017-04-20T04:07:13.265Z,-3.6
2017-04-20T04:07:31.920Z,-3.6
2017-04-20T04:07:50.573Z,-3.6
2017-04-20T04:08:09.257Z,-3.7
2017-04-20T04:08:27.907Z,-3.7
2017-04-20T04:08:46.566Z,-3.7
2017-04-20T04:09:05.225Z,-3.7